sensor_id;sensor_type;location;lat;lon;timestamp;temperature;humidity
4526;DHT22;2275;52.208;8.804;2022-09-12T00:00:04;14.90;53.50
4526;DHT22;2275;52.208;8.804;2022-09-12T00:02:31;14.90;51.80
4526;DHT22;2275;52.208;8.804;2022-09-12T00:04:58;14.80;53.10
4526;DHT22;2275;52.208;8.804;2022-09-12T00:07:25;14.80;52.90
4526;DHT22;2275;52.208;8.804;2022-09-12T00:09:52;14.80;53.50
4526;DHT22;2275;52.208;8.804;2022-09-12T00:12:19;14.70;55.30
4526;DHT22;2275;52.208;8.804;2022-09-12T00:14:46;14.70;55.90
4526;DHT22;2275;52.208;8.804;2022-09-12T00:17:13;14.70;56.00
4526;DHT22;2275;52.208;8.804;2022-09-12T00:19:40;14.60;56.70
4526;DHT22;2275;52.208;8.804;2022-09-12T00:22:07;14.60;58.00
4526;DHT22;2275;52.208;8.804;2022-09-12T00:24:34;14.60;58.30
4526;DHT22;2275;52.208;8.804;2022-09-12T00:27:01;14.60;58.00
4526;DHT22;2275;52.208;8.804;2022-09-12T00:29:29;14.50;57.70
4526;DHT22;2275;52.208;8.804;2022-09-12T00:31:56;14.50;57.10
4526;DHT22;2275;52.208;8.804;2022-09-12T00:34:23;14.50;56.90
4526;DHT22;2275;52.208;8.804;2022-09-12T00:36:50;14.40;56.20
4526;DHT22;2275;52.208;8.804;2022-09-12T00:39:17;14.40;57.00
4526;DHT22;2275;52.208;8.804;2022-09-12T00:41:44;14.40;55.70
4526;DHT22;2275;52.208;8.804;2022-09-12T00:44:42;14.40;55.90
4526;DHT22;2275;52.208;8.804;2022-09-12T00:47:16;14.30;56.10
4526;DHT22;2275;52.208;8.804;2022-09-12T00:52:15;14.30;58.10
4526;DHT22;2275;52.208;8.804;2022-09-12T00:54:46;14.20;59.00
4526;DHT22;2275;52.208;8.804;2022-09-12T00:57:11;14.20;59.80
4526;DHT22;2275;52.208;8.804;2022-09-12T00:59:42;14.10;61.00
4526;DHT22;2275;52.208;8.804;2022-09-12T01:02:07;14.10;60.20
4526;DHT22;2275;52.208;8.804;2022-09-12T01:04:34;14.20;62.30
4526;DHT22;2275;52.208;8.804;2022-09-12T01:07:02;14.10;60.70
4526;DHT22;2275;52.208;8.804;2022-09-12T01:09:29;14.10;62.30
4526;DHT22;2275;52.208;8.804;2022-09-12T01:11:56;14.10;60.90
4526;DHT22;2275;52.208;8.804;2022-09-12T01:14:24;14.10;60.70
4526;DHT22;2275;52.208;8.804;2022-09-12T01:16:51;14.10;62.00
4526;DHT22;2275;52.208;8.804;2022-09-12T01:27:32;14.00;60.00
4526;DHT22;2275;52.208;8.804;2022-09-12T01:35:31;13.90;62.80
4526;DHT22;2275;52.208;8.804;2022-09-12T01:38:20;13.90;62.50
4526;DHT22;2275;52.208;8.804;2022-09-12T01:40:44;13.80;64.10
4526;DHT22;2275;52.208;8.804;2022-09-12T01:43:21;13.80;63.40
4526;DHT22;2275;52.208;8.804;2022-09-12T01:45:55;13.80;64.10
4526;DHT22;2275;52.208;8.804;2022-09-12T01:48:20;13.80;63.20
4526;DHT22;2275;52.208;8.804;2022-09-12T01:50:55;13.70;65.20
4526;DHT22;2275;52.208;8.804;2022-09-12T01:53:23;13.70;65.90
4526;DHT22;2275;52.208;8.804;2022-09-12T01:55:52;13.70;67.90
4526;DHT22;2275;52.208;8.804;2022-09-12T01:58:20;13.70;66.50
4526;DHT22;2275;52.208;8.804;2022-09-12T02:00:54;13.70;64.80
4526;DHT22;2275;52.208;8.804;2022-09-12T02:03:22;13.70;64.70
4526;DHT22;2275;52.208;8.804;2022-09-12T02:05:48;13.70;64.30
4526;DHT22;2275;52.208;8.804;2022-09-12T02:08:16;13.70;64.50
4526;DHT22;2275;52.208;8.804;2022-09-12T02:10:47;13.70;65.00
4526;DHT22;2275;52.208;8.804;2022-09-12T02:13:15;13.70;63.40
4526;DHT22;2275;52.208;8.804;2022-09-12T02:15:44;13.70;63.70
4526;DHT22;2275;52.208;8.804;2022-09-12T02:18:10;13.60;63.20
4526;DHT22;2275;52.208;8.804;2022-09-12T02:20:37;13.60;62.50
4526;DHT22;2275;52.208;8.804;2022-09-12T02:23:07;13.50;65.60
4526;DHT22;2275;52.208;8.804;2022-09-12T02:25:33;13.50;64.80
4526;DHT22;2275;52.208;8.804;2022-09-12T02:28:03;13.50;61.90
4526;DHT22;2275;52.208;8.804;2022-09-12T02:30:34;13.50;61.20
4526;DHT22;2275;52.208;8.804;2022-09-12T02:33:00;13.50;60.90
4526;DHT22;2275;52.208;8.804;2022-09-12T02:38:10;13.50;63.10
4526;DHT22;2275;52.208;8.804;2022-09-12T02:40:39;13.50;62.00
4526;DHT22;2275;52.208;8.804;2022-09-12T02:43:06;13.50;63.00
4526;DHT22;2275;52.208;8.804;2022-09-12T02:45:33;13.50;64.00
4526;DHT22;2275;52.208;8.804;2022-09-12T02:48:22;13.50;64.70
4526;DHT22;2275;52.208;8.804;2022-09-12T02:50:51;13.50;63.10
4526;DHT22;2275;52.208;8.804;2022-09-12T02:53:19;13.40;61.30
4526;DHT22;2275;52.208;8.804;2022-09-12T02:55:46;13.40;61.80
4526;DHT22;2275;52.208;8.804;2022-09-12T02:58:16;13.40;61.00
4526;DHT22;2275;52.208;8.804;2022-09-12T03:00:48;13.40;62.80
4526;DHT22;2275;52.208;8.804;2022-09-12T03:03:37;13.40;62.30
4526;DHT22;2275;52.208;8.804;2022-09-12T03:06:10;13.40;60.70
4526;DHT22;2275;52.208;8.804;2022-09-12T03:08:45;13.30;60.20
4526;DHT22;2275;52.208;8.804;2022-09-12T03:11:22;13.30;63.10
4526;DHT22;2275;52.208;8.804;2022-09-12T03:13:55;13.30;62.30
4526;DHT22;2275;52.208;8.804;2022-09-12T03:16:32;13.30;62.70
4526;DHT22;2275;52.208;8.804;2022-09-12T03:24:57;13.20;61.00
4526;DHT22;2275;52.208;8.804;2022-09-12T03:27:18;13.10;60.90
4526;DHT22;2275;52.208;8.804;2022-09-12T03:29:47;13.10;63.20
4526;DHT22;2275;52.208;8.804;2022-09-12T03:32:14;13.10;62.40
4526;DHT22;2275;52.208;8.804;2022-09-12T03:34:42;13.20;65.30
4526;DHT22;2275;52.208;8.804;2022-09-12T03:37:09;13.10;63.60
4526;DHT22;2275;52.208;8.804;2022-09-12T03:39:36;13.20;62.80
4526;DHT22;2275;52.208;8.804;2022-09-12T03:42:03;13.20;63.20
4526;DHT22;2275;52.208;8.804;2022-09-12T03:44:30;13.20;63.20
4526;DHT22;2275;52.208;8.804;2022-09-12T03:46:57;13.20;60.90
4526;DHT22;2275;52.208;8.804;2022-09-12T03:49:24;13.20;62.80
4526;DHT22;2275;52.208;8.804;2022-09-12T03:51:52;13.20;61.80
4526;DHT22;2275;52.208;8.804;2022-09-12T03:54:19;13.20;62.60
4526;DHT22;2275;52.208;8.804;2022-09-12T03:56:47;13.20;64.30
4526;DHT22;2275;52.208;8.804;2022-09-12T03:59:14;13.20;63.50
4526;DHT22;2275;52.208;8.804;2022-09-12T04:01:42;13.20;64.20
4526;DHT22;2275;52.208;8.804;2022-09-12T04:04:10;13.20;64.30
4526;DHT22;2275;52.208;8.804;2022-09-12T04:06:38;13.20;63.60
4526;DHT22;2275;52.208;8.804;2022-09-12T04:09:05;13.30;63.20
4526;DHT22;2275;52.208;8.804;2022-09-12T04:11:32;13.20;62.30
4526;DHT22;2275;52.208;8.804;2022-09-12T04:14:00;13.20;62.70
4526;DHT22;2275;52.208;8.804;2022-09-12T04:16:27;13.20;61.10
4526;DHT22;2275;52.208;8.804;2022-09-12T04:18:54;13.20;60.30
4526;DHT22;2275;52.208;8.804;2022-09-12T04:21:22;13.20;62.00
4526;DHT22;2275;52.208;8.804;2022-09-12T04:23:49;13.20;61.10
4526;DHT22;2275;52.208;8.804;2022-09-12T04:26:17;13.20;59.80
4526;DHT22;2275;52.208;8.804;2022-09-12T04:28:44;13.20;63.50
4526;DHT22;2275;52.208;8.804;2022-09-12T04:31:12;13.10;62.00
4526;DHT22;2275;52.208;8.804;2022-09-12T04:33:38;13.10;65.00
4526;DHT22;2275;52.208;8.804;2022-09-12T04:36:09;13.10;65.40
4526;DHT22;2275;52.208;8.804;2022-09-12T04:38:37;13.10;66.90
4526;DHT22;2275;52.208;8.804;2022-09-12T04:41:12;13.20;66.90
4526;DHT22;2275;52.208;8.804;2022-09-12T04:43:39;13.20;65.60
4526;DHT22;2275;52.208;8.804;2022-09-12T04:46:07;13.30;65.40
4526;DHT22;2275;52.208;8.804;2022-09-12T04:48:34;13.20;65.60
4526;DHT22;2275;52.208;8.804;2022-09-12T04:51:13;13.30;64.80
4526;DHT22;2275;52.208;8.804;2022-09-12T04:53:50;13.30;63.30
4526;DHT22;2275;52.208;8.804;2022-09-12T04:56:17;13.20;63.20
4526;DHT22;2275;52.208;8.804;2022-09-12T04:58:44;13.20;61.90
4526;DHT22;2275;52.208;8.804;2022-09-12T05:01:12;13.20;62.10
4526;DHT22;2275;52.208;8.804;2022-09-12T05:03:38;13.20;61.60
4526;DHT22;2275;52.208;8.804;2022-09-12T05:06:06;13.10;60.50
4526;DHT22;2275;52.208;8.804;2022-09-12T05:08:33;13.20;61.10
4526;DHT22;2275;52.208;8.804;2022-09-12T05:11:05;13.20;61.20
4526;DHT22;2275;52.208;8.804;2022-09-12T05:13:31;13.20;60.60
4526;DHT22;2275;52.208;8.804;2022-09-12T05:15:59;13.30;59.30
4526;DHT22;2275;52.208;8.804;2022-09-12T05:18:26;13.30;58.60
4526;DHT22;2275;52.208;8.804;2022-09-12T05:20:53;13.30;58.90
4526;DHT22;2275;52.208;8.804;2022-09-12T05:23:20;13.30;58.10
4526;DHT22;2275;52.208;8.804;2022-09-12T05:25:50;13.30;59.40
4526;DHT22;2275;52.208;8.804;2022-09-12T05:28:18;13.40;59.90
4526;DHT22;2275;52.208;8.804;2022-09-12T05:30:44;13.40;59.30
4526;DHT22;2275;52.208;8.804;2022-09-12T05:33:14;13.50;60.10
4526;DHT22;2275;52.208;8.804;2022-09-12T05:35:41;13.50;60.40
4526;DHT22;2275;52.208;8.804;2022-09-12T05:38:08;13.50;60.00
4526;DHT22;2275;52.208;8.804;2022-09-12T05:40:36;13.60;59.50
4526;DHT22;2275;52.208;8.804;2022-09-12T05:43:03;13.60;58.30
4526;DHT22;2275;52.208;8.804;2022-09-12T05:45:30;13.60;57.10
4526;DHT22;2275;52.208;8.804;2022-09-12T05:47:58;13.70;55.40
4526;DHT22;2275;52.208;8.804;2022-09-12T05:50:25;13.70;57.50
4526;DHT22;2275;52.208;8.804;2022-09-12T05:52:52;13.80;53.90
4526;DHT22;2275;52.208;8.804;2022-09-12T05:55:19;13.80;54.90
4526;DHT22;2275;52.208;8.804;2022-09-12T05:57:46;13.80;53.60
4526;DHT22;2275;52.208;8.804;2022-09-12T06:00:14;13.90;52.60
4526;DHT22;2275;52.208;8.804;2022-09-12T06:02:41;13.90;50.60
4526;DHT22;2275;52.208;8.804;2022-09-12T06:05:09;14.00;49.60
4526;DHT22;2275;52.208;8.804;2022-09-12T06:07:41;14.00;48.20
4526;DHT22;2275;52.208;8.804;2022-09-12T06:10:21;14.10;46.90
4526;DHT22;2275;52.208;8.804;2022-09-12T06:12:58;14.10;46.50
4526;DHT22;2275;52.208;8.804;2022-09-12T06:15:29;14.20;44.00
4526;DHT22;2275;52.208;8.804;2022-09-12T06:17:57;14.30;43.60
4526;DHT22;2275;52.208;8.804;2022-09-12T06:20:24;14.40;41.30
4526;DHT22;2275;52.208;8.804;2022-09-12T06:22:54;14.40;40.60
4526;DHT22;2275;52.208;8.804;2022-09-12T06:25:21;14.50;39.40
4526;DHT22;2275;52.208;8.804;2022-09-12T06:27:48;14.60;39.00
4526;DHT22;2275;52.208;8.804;2022-09-12T06:30:15;14.70;37.80
4526;DHT22;2275;52.208;8.804;2022-09-12T06:32:43;14.70;35.90
4526;DHT22;2275;52.208;8.804;2022-09-12T06:35:10;14.80;33.60
4526;DHT22;2275;52.208;8.804;2022-09-12T06:37:39;14.90;31.50
4526;DHT22;2275;52.208;8.804;2022-09-12T06:40:08;15.10;23.00
4526;DHT22;2275;52.208;8.804;2022-09-12T06:42:35;15.00;22.50
4526;DHT22;2275;52.208;8.804;2022-09-12T06:45:02;15.00;24.50
4526;DHT22;2275;52.208;8.804;2022-09-12T06:47:29;15.10;21.00
4526;DHT22;2275;52.208;8.804;2022-09-12T06:49:56;15.10;21.40
4526;DHT22;2275;52.208;8.804;2022-09-12T06:52:24;15.20;21.00
4526;DHT22;2275;52.208;8.804;2022-09-12T06:54:54;15.40;18.60
4526;DHT22;2275;52.208;8.804;2022-09-12T06:57:21;15.40;16.80
4526;DHT22;2275;52.208;8.804;2022-09-12T06:59:48;15.50;12.20
4526;DHT22;2275;52.208;8.804;2022-09-12T07:02:20;15.60;13.50
4526;DHT22;2275;52.208;8.804;2022-09-12T07:04:48;15.70;12.00
4526;DHT22;2275;52.208;8.804;2022-09-12T07:07:16;15.70;9.60
4526;DHT22;2275;52.208;8.804;2022-09-12T07:10:02;15.70;9.20
4526;DHT22;2275;52.208;8.804;2022-09-12T07:12:30;15.70;9.30
4526;DHT22;2275;52.208;8.804;2022-09-12T07:14:57;15.80;10.20
4526;DHT22;2275;52.208;8.804;2022-09-12T07:17:24;15.90;9.90
4526;DHT22;2275;52.208;8.804;2022-09-12T07:19:51;15.90;9.10
4526;DHT22;2275;52.208;8.804;2022-09-12T07:22:18;16.00;7.40
4526;DHT22;2275;52.208;8.804;2022-09-12T07:24:44;16.00;3.50
4526;DHT22;2275;52.208;8.804;2022-09-12T07:27:13;15.90;4.90
4526;DHT22;2275;52.208;8.804;2022-09-12T07:32:59;15.70;13.30
4526;DHT22;2275;52.208;8.804;2022-09-12T07:35:38;15.70;17.80
4526;DHT22;2275;52.208;8.804;2022-09-12T07:38:09;15.70;20.20
4526;DHT22;2275;52.208;8.804;2022-09-12T07:40:36;15.70;16.60
4526;DHT22;2275;52.208;8.804;2022-09-12T07:43:03;15.70;18.00
4526;DHT22;2275;52.208;8.804;2022-09-12T07:45:30;15.70;21.70
4526;DHT22;2275;52.208;8.804;2022-09-12T07:47:57;15.80;17.70
4526;DHT22;2275;52.208;8.804;2022-09-12T07:50:25;15.80;17.10
4526;DHT22;2275;52.208;8.804;2022-09-12T07:52:53;15.70;16.70
4526;DHT22;2275;52.208;8.804;2022-09-12T07:55:20;15.70;19.90
4526;DHT22;2275;52.208;8.804;2022-09-12T07:57:50;15.80;23.00
4526;DHT22;2275;52.208;8.804;2022-09-12T08:00:17;15.80;18.60
4526;DHT22;2275;52.208;8.804;2022-09-12T08:02:44;15.80;22.70
4526;DHT22;2275;52.208;8.804;2022-09-12T08:05:12;16.00;23.40
4526;DHT22;2275;52.208;8.804;2022-09-12T08:07:39;16.10;19.00
4526;DHT22;2275;52.208;8.804;2022-09-12T08:10:06;16.20;12.90
4526;DHT22;2275;52.208;8.804;2022-09-12T08:12:33;16.10;14.70
4526;DHT22;2275;52.208;8.804;2022-09-12T08:15:00;16.20;22.10
4526;DHT22;2275;52.208;8.804;2022-09-12T08:17:27;16.40;24.20
4526;DHT22;2275;52.208;8.804;2022-09-12T08:19:54;16.60;20.50
4526;DHT22;2275;52.208;8.804;2022-09-12T08:22:21;16.90;10.40
4526;DHT22;2275;52.208;8.804;2022-09-12T08:24:48;17.20;1.00
4526;DHT22;2275;52.208;8.804;2022-09-12T08:27:15;17.50;1.00
4526;DHT22;2275;52.208;8.804;2022-09-12T08:29:42;17.80;1.00
4526;DHT22;2275;52.208;8.804;2022-09-12T08:32:09;18.10;1.00
4526;DHT22;2275;52.208;8.804;2022-09-12T08:34:36;18.40;1.00
4526;DHT22;2275;52.208;8.804;2022-09-12T08:37:04;19.10;1.00
4526;DHT22;2275;52.208;8.804;2022-09-12T08:39:31;19.00;1.00
4526;DHT22;2275;52.208;8.804;2022-09-12T08:42:00;19.50;1.00
4526;DHT22;2275;52.208;8.804;2022-09-12T08:44:38;19.50;1.00
4526;DHT22;2275;52.208;8.804;2022-09-12T08:47:08;19.70;1.00
4526;DHT22;2275;52.208;8.804;2022-09-12T08:49:33;19.80;1.00
4526;DHT22;2275;52.208;8.804;2022-09-12T08:52:01;19.80;1.00
4526;DHT22;2275;52.208;8.804;2022-09-12T08:54:28;19.70;1.00
4526;DHT22;2275;52.208;8.804;2022-09-12T08:56:56;19.70;1.00
4526;DHT22;2275;52.208;8.804;2022-09-12T08:59:40;19.90;1.00
4526;DHT22;2275;52.208;8.804;2022-09-12T09:07:58;20.40;99.90
4526;DHT22;2275;52.208;8.804;2022-09-12T09:10:32;20.80;99.90
4526;DHT22;2275;52.208;8.804;2022-09-12T09:13:01;21.00;48.00
4526;DHT22;2275;52.208;8.804;2022-09-12T09:15:42;21.30;1.00
4526;DHT22;2275;52.208;8.804;2022-09-12T09:18:11;21.50;99.90
4526;DHT22;2275;52.208;8.804;2022-09-12T09:20:42;21.80;99.90
4526;DHT22;2275;52.208;8.804;2022-09-12T09:23:13;22.00;99.90
4526;DHT22;2275;52.208;8.804;2022-09-12T09:25:49;22.00;1.00
4526;DHT22;2275;52.208;8.804;2022-09-12T09:30:54;22.00;99.90
4526;DHT22;2275;52.208;8.804;2022-09-12T09:33:23;22.30;1.00
4526;DHT22;2275;52.208;8.804;2022-09-12T09:35:59;22.60;99.90
4526;DHT22;2275;52.208;8.804;2022-09-12T09:38:33;22.80;99.90
4526;DHT22;2275;52.208;8.804;2022-09-12T09:41:03;23.10;1.00
4526;DHT22;2275;52.208;8.804;2022-09-12T09:43:28;23.30;99.90
4526;DHT22;2275;52.208;8.804;2022-09-12T09:45:55;23.50;99.90
4526;DHT22;2275;52.208;8.804;2022-09-12T09:48:26;23.70;40.10
4526;DHT22;2275;52.208;8.804;2022-09-12T09:50:52;24.00;99.90
4526;DHT22;2275;52.208;8.804;2022-09-12T09:53:41;24.50;99.90
4526;DHT22;2275;52.208;8.804;2022-09-12T09:56:13;24.50;99.90
4526;DHT22;2275;52.208;8.804;2022-09-12T09:58:39;24.90;99.90
4526;DHT22;2275;52.208;8.804;2022-09-12T10:01:13;25.70;99.90
4526;DHT22;2275;52.208;8.804;2022-09-12T10:03:39;25.70;99.90
4526;DHT22;2275;52.208;8.804;2022-09-12T10:08:40;25.90;99.90
4526;DHT22;2275;52.208;8.804;2022-09-12T10:13:53;25.30;99.90
4526;DHT22;2275;52.208;8.804;2022-09-12T10:16:24;24.90;99.90
4526;DHT22;2275;52.208;8.804;2022-09-12T10:18:51;25.00;99.90
4526;DHT22;2275;52.208;8.804;2022-09-12T10:21:25;25.00;99.90
4526;DHT22;2275;52.208;8.804;2022-09-12T10:23:50;24.90;99.90
4526;DHT22;2275;52.208;8.804;2022-09-12T10:26:18;24.90;99.90
4526;DHT22;2275;52.208;8.804;2022-09-12T10:28:50;25.10;99.90
4526;DHT22;2275;52.208;8.804;2022-09-12T10:31:22;25.10;99.90
4526;DHT22;2275;52.208;8.804;2022-09-12T10:33:46;25.00;99.90
4526;DHT22;2275;52.208;8.804;2022-09-12T10:36:15;25.10;99.90
4526;DHT22;2275;52.208;8.804;2022-09-12T10:38:50;25.40;99.90
4526;DHT22;2275;52.208;8.804;2022-09-12T10:41:18;25.30;99.90
4526;DHT22;2275;52.208;8.804;2022-09-12T10:43:45;25.10;99.90
4526;DHT22;2275;52.208;8.804;2022-09-12T10:46:25;24.80;99.90
4526;DHT22;2275;52.208;8.804;2022-09-12T10:48:50;24.50;99.90
4526;DHT22;2275;52.208;8.804;2022-09-12T10:51:33;24.50;99.90
4526;DHT22;2275;52.208;8.804;2022-09-12T10:54:07;24.50;99.90
4526;DHT22;2275;52.208;8.804;2022-09-12T10:56:39;24.60;99.90
4526;DHT22;2275;52.208;8.804;2022-09-12T11:08:10;26.60;99.90
4526;DHT22;2275;52.208;8.804;2022-09-12T11:10:39;26.40;99.90
4526;DHT22;2275;52.208;8.804;2022-09-12T11:13:16;26.10;99.90
4526;DHT22;2275;52.208;8.804;2022-09-12T11:15:55;26.40;99.90
4526;DHT22;2275;52.208;8.804;2022-09-12T11:21:11;28.30;99.90
4526;DHT22;2275;52.208;8.804;2022-09-12T11:26:46;29.40;99.90
4526;DHT22;2275;52.208;8.804;2022-09-12T11:29:14;29.50;99.90
4526;DHT22;2275;52.208;8.804;2022-09-12T11:31:52;29.30;99.90
4526;DHT22;2275;52.208;8.804;2022-09-12T11:34:20;29.70;99.90
4526;DHT22;2275;52.208;8.804;2022-09-12T11:37:18;29.60;99.90
4526;DHT22;2275;52.208;8.804;2022-09-12T11:39:42;29.60;99.90
4526;DHT22;2275;52.208;8.804;2022-09-12T11:42:13;29.10;99.90
4526;DHT22;2275;52.208;8.804;2022-09-12T11:44:39;28.90;99.90
4526;DHT22;2275;52.208;8.804;2022-09-12T11:47:07;28.70;99.90
4526;DHT22;2275;52.208;8.804;2022-09-12T11:49:36;28.20;99.90
4526;DHT22;2275;52.208;8.804;2022-09-12T11:52:10;27.50;99.90
4526;DHT22;2275;52.208;8.804;2022-09-12T11:54:39;27.40;99.90
4526;DHT22;2275;52.208;8.804;2022-09-12T11:57:25;27.20;99.90
4526;DHT22;2275;52.208;8.804;2022-09-12T11:59:59;27.20;99.90
4526;DHT22;2275;52.208;8.804;2022-09-12T12:02:34;27.10;99.90
4526;DHT22;2275;52.208;8.804;2022-09-12T12:05:23;27.10;99.90
4526;DHT22;2275;52.208;8.804;2022-09-12T12:07:52;27.30;99.90
4526;DHT22;2275;52.208;8.804;2022-09-12T12:10:23;27.20;99.90
4526;DHT22;2275;52.208;8.804;2022-09-12T12:12:50;27.20;99.90
4526;DHT22;2275;52.208;8.804;2022-09-12T12:15:16;27.30;99.90
4526;DHT22;2275;52.208;8.804;2022-09-12T12:17:43;27.20;99.90
4526;DHT22;2275;52.208;8.804;2022-09-12T12:22:51;27.60;99.90
4526;DHT22;2275;52.208;8.804;2022-09-12T12:25:23;27.50;99.90
4526;DHT22;2275;52.208;8.804;2022-09-12T12:27:55;27.30;99.90
4526;DHT22;2275;52.208;8.804;2022-09-12T12:33:52;26.90;99.90
4526;DHT22;2275;52.208;8.804;2022-09-12T12:36:29;26.90;99.90
4526;DHT22;2275;52.208;8.804;2022-09-12T12:38:55;26.80;99.90
4526;DHT22;2275;52.208;8.804;2022-09-12T12:41:43;26.90;99.90
4526;DHT22;2275;52.208;8.804;2022-09-12T12:47:17;27.30;99.90
4526;DHT22;2275;52.208;8.804;2022-09-12T12:49:48;27.50;99.90
4526;DHT22;2275;52.208;8.804;2022-09-12T12:52:15;27.50;99.90
4526;DHT22;2275;52.208;8.804;2022-09-12T12:54:51;27.60;99.90
4526;DHT22;2275;52.208;8.804;2022-09-12T13:00:00;27.90;99.90
4526;DHT22;2275;52.208;8.804;2022-09-12T13:02:27;27.80;99.90
4526;DHT22;2275;52.208;8.804;2022-09-12T13:04:53;27.70;99.90
4526;DHT22;2275;52.208;8.804;2022-09-12T13:07:24;28.00;99.90
4526;DHT22;2275;52.208;8.804;2022-09-12T13:09:50;28.30;99.90
4526;DHT22;2275;52.208;8.804;2022-09-12T13:12:20;28.40;99.90
4526;DHT22;2275;52.208;8.804;2022-09-12T13:14:49;28.60;99.90
4526;DHT22;2275;52.208;8.804;2022-09-12T13:20:23;28.50;99.90
4526;DHT22;2275;52.208;8.804;2022-09-12T13:22:49;28.40;99.90
4526;DHT22;2275;52.208;8.804;2022-09-12T13:25:27;28.30;99.90
4526;DHT22;2275;52.208;8.804;2022-09-12T13:28:02;28.30;99.90
4526;DHT22;2275;52.208;8.804;2022-09-12T13:30:32;28.50;99.90
4526;DHT22;2275;52.208;8.804;2022-09-12T13:36:13;28.70;99.90
4526;DHT22;2275;52.208;8.804;2022-09-12T13:38:50;28.80;99.90
4526;DHT22;2275;52.208;8.804;2022-09-12T13:41:39;28.90;99.90
4526;DHT22;2275;52.208;8.804;2022-09-12T13:44:06;28.80;99.90
4526;DHT22;2275;52.208;8.804;2022-09-12T13:46:31;28.80;99.90
4526;DHT22;2275;52.208;8.804;2022-09-12T13:48:59;28.50;98.90
4526;DHT22;2275;52.208;8.804;2022-09-12T13:51:32;28.40;98.70
4526;DHT22;2275;52.208;8.804;2022-09-12T13:54:01;28.50;99.30
4526;DHT22;2275;52.208;8.804;2022-09-12T13:56:29;29.00;95.70
4526;DHT22;2275;52.208;8.804;2022-09-12T13:58:57;29.00;99.50
4526;DHT22;2275;52.208;8.804;2022-09-12T14:01:24;29.40;99.10
4526;DHT22;2275;52.208;8.804;2022-09-12T14:03:51;29.50;98.10
4526;DHT22;2275;52.208;8.804;2022-09-12T14:06:23;29.60;97.50
4526;DHT22;2275;52.208;8.804;2022-09-12T14:08:50;29.60;96.70
4526;DHT22;2275;52.208;8.804;2022-09-12T14:11:23;29.70;96.60
4526;DHT22;2275;52.208;8.804;2022-09-12T14:13:51;29.80;95.10
4526;DHT22;2275;52.208;8.804;2022-09-12T14:16:18;29.70;93.50
4526;DHT22;2275;52.208;8.804;2022-09-12T14:18:47;29.30;92.20
4526;DHT22;2275;52.208;8.804;2022-09-12T14:21:33;29.30;91.40
4526;DHT22;2275;52.208;8.804;2022-09-12T14:23:53;29.30;91.40
4526;DHT22;2275;52.208;8.804;2022-09-12T14:26:22;29.40;91.00
4526;DHT22;2275;52.208;8.804;2022-09-12T14:28:51;29.10;88.80
4526;DHT22;2275;52.208;8.804;2022-09-12T14:31:23;28.90;86.90
4526;DHT22;2275;52.208;8.804;2022-09-12T14:33:51;28.80;84.70
4526;DHT22;2275;52.208;8.804;2022-09-12T14:36:34;28.60;82.60
4526;DHT22;2275;52.208;8.804;2022-09-12T14:39:03;28.50;80.20
4526;DHT22;2275;52.208;8.804;2022-09-12T14:41:34;28.10;77.00
4526;DHT22;2275;52.208;8.804;2022-09-12T14:44:03;27.70;73.90
4526;DHT22;2275;52.208;8.804;2022-09-12T14:46:34;27.50;72.20
4526;DHT22;2275;52.208;8.804;2022-09-12T14:49:07;27.50;71.70
4526;DHT22;2275;52.208;8.804;2022-09-12T14:51:35;27.70;73.00
4526;DHT22;2275;52.208;8.804;2022-09-12T14:54:01;27.90;73.20
4526;DHT22;2275;52.208;8.804;2022-09-12T14:56:37;28.10;75.30
4526;DHT22;2275;52.208;8.804;2022-09-12T15:04:38;28.70;77.60
4526;DHT22;2275;52.208;8.804;2022-09-12T15:07:13;28.90;77.80
4526;DHT22;2275;52.208;8.804;2022-09-12T15:09:39;29.00;77.40
4526;DHT22;2275;52.208;8.804;2022-09-12T15:12:08;29.10;75.90
4526;DHT22;2275;52.208;8.804;2022-09-12T15:14:33;29.20;74.70
4526;DHT22;2275;52.208;8.804;2022-09-12T15:17:01;29.10;73.00
4526;DHT22;2275;52.208;8.804;2022-09-12T15:19:28;29.00;70.70
4526;DHT22;2275;52.208;8.804;2022-09-12T15:21:56;28.30;69.70
4526;DHT22;2275;52.208;8.804;2022-09-12T15:24:25;28.30;63.80
4526;DHT22;2275;52.208;8.804;2022-09-12T15:26:52;28.10;61.70
4526;DHT22;2275;52.208;8.804;2022-09-12T15:29:19;27.90;59.80
4526;DHT22;2275;52.208;8.804;2022-09-12T15:31:46;27.80;58.60
4526;DHT22;2275;52.208;8.804;2022-09-12T15:34:13;27.80;58.80
4526;DHT22;2275;52.208;8.804;2022-09-12T15:36:40;27.80;58.80
4526;DHT22;2275;52.208;8.804;2022-09-12T15:39:08;27.80;58.00
4526;DHT22;2275;52.208;8.804;2022-09-12T15:41:38;27.70;57.30
4526;DHT22;2275;52.208;8.804;2022-09-12T15:44:06;27.70;56.20
4526;DHT22;2275;52.208;8.804;2022-09-12T15:46:33;27.50;55.00
4526;DHT22;2275;52.208;8.804;2022-09-12T15:49:00;27.40;53.80
4526;DHT22;2275;52.208;8.804;2022-09-12T15:51:27;27.30;53.40
4526;DHT22;2275;52.208;8.804;2022-09-12T15:53:54;27.20;52.20
4526;DHT22;2275;52.208;8.804;2022-09-12T15:56:21;27.10;50.80
4526;DHT22;2275;52.208;8.804;2022-09-12T15:58:48;27.00;50.60
4526;DHT22;2275;52.208;8.804;2022-09-12T16:01:16;26.90;50.10
4526;DHT22;2275;52.208;8.804;2022-09-12T16:03:44;27.00;49.80
4526;DHT22;2275;52.208;8.804;2022-09-12T16:06:09;27.00;49.50
4526;DHT22;2275;52.208;8.804;2022-09-12T16:08:36;27.00;50.00
4526;DHT22;2275;52.208;8.804;2022-09-12T16:11:11;26.90;49.90
4526;DHT22;2275;52.208;8.804;2022-09-12T16:13:35;26.90;49.40
4526;DHT22;2275;52.208;8.804;2022-09-12T16:16:02;26.80;48.80
4526;DHT22;2275;52.208;8.804;2022-09-12T16:18:29;26.80;48.60
4526;DHT22;2275;52.208;8.804;2022-09-12T16:20:56;26.80;48.30
4526;DHT22;2275;52.208;8.804;2022-09-12T16:23:23;26.70;47.70
4526;DHT22;2275;52.208;8.804;2022-09-12T16:25:56;26.70;47.20
4526;DHT22;2275;52.208;8.804;2022-09-12T16:28:22;26.60;47.10
4526;DHT22;2275;52.208;8.804;2022-09-12T16:30:56;26.60;47.10
4526;DHT22;2275;52.208;8.804;2022-09-12T16:33:22;26.60;46.80
4526;DHT22;2275;52.208;8.804;2022-09-12T16:35:49;26.60;46.80
4526;DHT22;2275;52.208;8.804;2022-09-12T16:38:16;26.60;46.60
4526;DHT22;2275;52.208;8.804;2022-09-12T16:40:59;26.50;47.10
4526;DHT22;2275;52.208;8.804;2022-09-12T16:43:28;26.50;46.60
4526;DHT22;2275;52.208;8.804;2022-09-12T16:46:00;26.50;46.40
4526;DHT22;2275;52.208;8.804;2022-09-12T16:48:28;26.40;45.90
4526;DHT22;2275;52.208;8.804;2022-09-12T16:51:09;26.10;45.30
4526;DHT22;2275;52.208;8.804;2022-09-12T16:53:37;26.10;44.90
4526;DHT22;2275;52.208;8.804;2022-09-12T16:56:07;26.00;44.30
4526;DHT22;2275;52.208;8.804;2022-09-12T16:58:35;25.90;44.10
4526;DHT22;2275;52.208;8.804;2022-09-12T17:01:02;25.80;43.20
4526;DHT22;2275;52.208;8.804;2022-09-12T17:03:28;25.70;43.30
4526;DHT22;2275;52.208;8.804;2022-09-12T17:06:05;25.70;43.10
4526;DHT22;2275;52.208;8.804;2022-09-12T17:08:33;25.60;43.50
4526;DHT22;2275;52.208;8.804;2022-09-12T17:11:02;25.60;43.10
4526;DHT22;2275;52.208;8.804;2022-09-12T17:13:28;25.50;42.90
4526;DHT22;2275;52.208;8.804;2022-09-12T17:15:55;25.40;43.40
4526;DHT22;2275;52.208;8.804;2022-09-12T17:18:22;25.40;50.40
4526;DHT22;2275;52.208;8.804;2022-09-12T17:20:49;25.40;43.40
4526;DHT22;2275;52.208;8.804;2022-09-12T17:23:16;25.40;44.00
4526;DHT22;2275;52.208;8.804;2022-09-12T17:25:46;25.30;44.90
4526;DHT22;2275;52.208;8.804;2022-09-12T17:28:13;25.30;44.60
4526;DHT22;2275;52.208;8.804;2022-09-12T17:30:40;25.20;45.40
4526;DHT22;2275;52.208;8.804;2022-09-12T17:33:07;25.10;44.80
4526;DHT22;2275;52.208;8.804;2022-09-12T17:35:34;25.00;45.20